首页
METAR-TAF:

METAR-TAF

机场 :

布科巴, 坦桑尼亚

纬度: 01-20S, 经度: 031-49E, 海拔: 1137米

当前天气观测

该预报发布于2小时和18分钟前的09:00 UTC
风速5节,风向南转南东
温度 27°C
湿度 58%
气压 1018 hPa
能见度10公里或以上
少量云层高于2400英尺
少量云层高于2600英尺, 积雨云.

METAR: HTBU 150900Z 15005KT 9999 FEW024 FEW026CB 27/18 Q1018 NOSIG

时间: 14:18 (11:18 UTC)

预报

该预报发布于6小时和18分钟前的05:00 UTC
预报有效从15日的 06点(UTC)到 16日的 06点(UTC)
风速10节,风向南转南东
能见度10公里或以上
少量云层高于1800英尺

TAF: HTBU 150500Z 1506/1606 15010KT 9999 FEW018

超过4000个机场的气象观测和天气预报(METAR&TAF报告)。

可查询的气象台以黄色和红色小点在地图上表示。

将鼠标移到小点上方,可查看气象台名称。

然后点击查看天气观测和预报。

如需切换地图:点击带黑十字的绿色按钮放大地图;点击带横线的绿色按钮缩小地图;或者点击绿色箭头查看邻近地区的地图。


METAR-TAF: